Merchtem, Belgium
Current Conditions -  °F | °C
As of 11:20 PM on Tuesday 21 Oct 2014 (Local Time) from EBBR Reporting Station
Rain Showers Rain Showers  
Wind Chill: 41°   Ceiling: 4800
Heat Index: 48°   Visibility: 6mi
Dew Point: 39°   Wind: 22mph
Humidity: 71%   Direction: 290°WNW
Pressure: 29.88"   Gusts: 36mph
Location:  50.95°N, 4.23°E
Report Text: EBBR 212120Z 29019G31KT 9999 -SHRA FEW027 BKN048 09/04 Q1012 TEMPO 28018G30KT
Loading
Personal Weather Stations






























Interactive Weather Map
Tropical Storm Tracking
New forecast layout! Learn more

10-Day Weather Forecast

Advertisements
Track Severe Weather on mobile